Niagara Falls, NY (14302)

6:27 PM EDT on September 23, 2014 (GMT -0400)
Monroe Sub Niagara Falls ON | Change Station
CLOSE
Current Station
Personal Weather Station
Location: Niagara Falls, ON
Elevation: 670 ft
Nearby Weather Stations

Elev 670 ft 43.11 °N, 79.11 °W | Updated 9 seconds ago

Clear
Clear
64.0 °F
Feels Like 64.0 °F
N
3.8
Wind Variable Wind from South
Gusts 6.9 mph

Today
High -- | Low -- °F
--% Chance of Precip.
Yesterday
High -- | Low -- °F
Precip. -- in
7:04 AM 7:11 PM
Waning Crescent, 0% visible
Pressure 30.34 in
Visibility 10.0 miles
Clouds Few 25000 ft
Dew Point 52 °F
Humidity 66%
Rainfall 0.00 in
Snow Depth Not available.
UV 1 out of 12
Pollen 3.50 out of 12
Air Quality Not available.
Flu Activity Not available.
METAR KIAG 232153Z 21012KT 10SM FEW250 18/11 A3033 RMK AO2 SLP273 T01830111

More Conditions Fewer Conditions

Pressure 30.34 in
Visibility 10.0 miles
Clouds Few 25000 ft
Dew Point 52 °F
Humidity 66%
Rainfall 0.00 in
Snow Depth Not available.
UV 1 out of 12
Pollen 3.50 out of 12
Air Quality Not available.
Flu Activity Not available.
METAR KIAG 232153Z 21012KT 10SM FEW250 18/11 A3033 RMK AO2 SLP273 T01830111

More Conditions Fewer Conditions

10-Day Weather Forecast

Almanac

Astronomy

Sep. 23, 2014 Rise Set
Actual Time 7:04 AM EDT 7:11 PM EDT
Civil Twilight 6:36 AM EDT 7:40 PM EDT
Nautical Twilight 6:03 AM EDT 8:13 PM EDT
Astronomical Twilight 5:29 AM EDT 8:47 PM EDT
Moon 6:26 AM EDT 6:49 PM EDT
Length of Visible Light 13h 03m
Length of Day
12h 07m
Tomorrow will be 2m 54s shorter.
Waning Crescent, 0% of the Moon is Illuminated
Today
Waning Crescent
Sep 24
New
Oct 1
First Quarter
Oct 8
Full
Oct 15
Last Quarter

Today's Extremes

State Highs State Lows

Community

WunderPhotos

Upload Photos

1,755,801 photos uploaded!

WunderBlogs® & News

Nearby

Air Quality

  Air Quality AQ Index Pollutant
Tuesday Good
OZONE
Tuesday Good
PM2.5
Wednesday Good
PM2.5
Wednesday Good
OZONE

Snow Depth

Station Depth Elevation
No new snow has been reported.

Earthquake Activity

City Distance Mag. Time & Date
No recent earthquake activity has been reported nearby.
Minimum magnitude displayed is 2.5.

Coastal Water Temperatures

Place Temperature
Buffalo, NY 66.0 °F

Nearby Weather Stations